sensor_id;sensor_type;location;lat;lon;timestamp;pressure;altitude;pressure_sealevel;temperature;humidity
59971;BME280;45825;45.434;9.116;2023-12-22T00:00:56;98880.13;;;5.90;100.00
59971;BME280;45825;45.434;9.116;2023-12-22T00:03:21;98883.19;;;5.82;100.00
59971;BME280;45825;45.434;9.116;2023-12-22T00:05:47;98895.19;;;5.70;100.00
59971;BME280;45825;45.434;9.116;2023-12-22T00:08:12;98891.16;;;5.64;100.00
59971;BME280;45825;45.434;9.116;2023-12-22T00:10:37;98883.94;;;5.53;100.00
59971;BME280;45825;45.434;9.116;2023-12-22T00:13:03;98885.28;;;5.61;100.00
59971;BME280;45825;45.434;9.116;2023-12-22T00:15:28;98890.13;;;5.67;100.00
59971;BME280;45825;45.434;9.116;2023-12-22T00:17:53;98909.00;;;5.72;100.00
59971;BME280;45825;45.434;9.116;2023-12-22T00:20:18;98924.44;;;5.61;100.00
59971;BME280;45825;45.434;9.116;2023-12-22T00:22:44;98935.88;;;5.42;100.00
59971;BME280;45825;45.434;9.116;2023-12-22T00:25:09;98934.38;;;5.38;100.00
59971;BME280;45825;45.434;9.116;2023-12-22T00:27:35;98942.84;;;5.25;100.00
59971;BME280;45825;45.434;9.116;2023-12-22T00:30:00;98931.59;;;5.25;100.00
59971;BME280;45825;45.434;9.116;2023-12-22T00:32:25;98937.56;;;5.27;100.00
59971;BME280;45825;45.434;9.116;2023-12-22T00:34:51;98931.28;;;5.31;100.00
59971;BME280;45825;45.434;9.116;2023-12-22T00:37:16;98941.34;;;5.37;100.00
59971;BME280;45825;45.434;9.116;2023-12-22T00:39:42;98930.72;;;5.40;100.00
59971;BME280;45825;45.434;9.116;2023-12-22T00:42:07;98920.16;;;5.43;100.00
59971;BME280;45825;45.434;9.116;2023-12-22T00:44:32;98922.16;;;5.38;100.00
59971;BME280;45825;45.434;9.116;2023-12-22T00:46:57;98913.66;;;5.35;100.00
59971;BME280;45825;45.434;9.116;2023-12-22T00:49:23;98908.19;;;5.23;100.00
59971;BME280;45825;45.434;9.116;2023-12-22T00:51:48;98900.38;;;5.23;100.00
59971;BME280;45825;45.434;9.116;2023-12-22T00:54:14;98919.47;;;5.24;100.00
59971;BME280;45825;45.434;9.116;2023-12-22T00:56:39;98911.41;;;5.28;100.00
59971;BME280;45825;45.434;9.116;2023-12-22T00:59:04;98894.66;;;5.32;100.00
59971;BME280;45825;45.434;9.116;2023-12-22T01:01:30;98906.69;;;5.35;100.00
59971;BME280;45825;45.434;9.116;2023-12-22T01:03:55;98886.25;;;5.27;100.00
59971;BME280;45825;45.434;9.116;2023-12-22T01:06:20;98880.94;;;5.29;100.00
59971;BME280;45825;45.434;9.116;2023-12-22T01:08:46;98875.38;;;5.35;100.00
59971;BME280;45825;45.434;9.116;2023-12-22T01:11:15;98887.56;;;5.35;100.00
59971;BME280;45825;45.434;9.116;2023-12-22T01:13:41;98916.94;;;5.38;100.00
59971;BME280;45825;45.434;9.116;2023-12-22T01:16:06;98896.81;;;5.40;100.00
59971;BME280;45825;45.434;9.116;2023-12-22T01:18:31;98905.69;;;5.38;100.00
59971;BME280;45825;45.434;9.116;2023-12-22T01:20:57;98896.44;;;5.32;100.00
59971;BME280;45825;45.434;9.116;2023-12-22T01:23:22;98907.69;;;5.32;100.00
59971;BME280;45825;45.434;9.116;2023-12-22T01:25:47;98923.69;;;5.42;100.00
59971;BME280;45825;45.434;9.116;2023-12-22T01:28:12;98920.16;;;5.27;100.00
59971;BME280;45825;45.434;9.116;2023-12-22T01:30:38;98942.75;;;5.11;100.00
59971;BME280;45825;45.434;9.116;2023-12-22T01:33:03;98940.16;;;5.11;100.00
59971;BME280;45825;45.434;9.116;2023-12-22T01:35:28;98929.91;;;5.08;100.00
59971;BME280;45825;45.434;9.116;2023-12-22T01:37:54;98921.56;;;5.01;100.00
59971;BME280;45825;45.434;9.116;2023-12-22T01:40:19;98937.81;;;5.22;100.00
59971;BME280;45825;45.434;9.116;2023-12-22T01:42:45;98938.41;;;5.27;100.00
59971;BME280;45825;45.434;9.116;2023-12-22T01:45:11;98959.53;;;5.23;100.00
59971;BME280;45825;45.434;9.116;2023-12-22T01:47:36;98947.06;;;5.28;100.00
59971;BME280;45825;45.434;9.116;2023-12-22T01:50:02;98956.75;;;5.26;100.00
59971;BME280;45825;45.434;9.116;2023-12-22T01:52:28;98953.81;;;5.16;100.00
59971;BME280;45825;45.434;9.116;2023-12-22T01:54:54;98954.06;;;5.11;100.00
59971;BME280;45825;45.434;9.116;2023-12-22T01:57:21;98952.88;;;5.17;100.00
59971;BME280;45825;45.434;9.116;2023-12-22T01:59:48;98963.81;;;5.24;100.00
59971;BME280;45825;45.434;9.116;2023-12-22T02:02:14;98941.34;;;5.21;100.00
59971;BME280;45825;45.434;9.116;2023-12-22T02:04:40;98957.75;;;5.39;100.00
59971;BME280;45825;45.434;9.116;2023-12-22T02:07:06;98956.75;;;5.42;100.00
59971;BME280;45825;45.434;9.116;2023-12-22T02:09:34;98971.91;;;5.35;100.00
59971;BME280;45825;45.434;9.116;2023-12-22T02:11:59;98967.50;;;5.36;100.00
59971;BME280;45825;45.434;9.116;2023-12-22T02:14:24;98956.75;;;5.42;100.00
59971;BME280;45825;45.434;9.116;2023-12-22T02:19:26;98946.50;;;5.23;100.00
59971;BME280;45825;45.434;9.116;2023-12-22T02:22:03;98959.34;;;5.26;100.00
59971;BME280;45825;45.434;9.116;2023-12-22T02:24:29;98969.53;;;5.30;100.00
59971;BME280;45825;45.434;9.116;2023-12-22T02:29:36;98924.59;;;5.25;100.00
59971;BME280;45825;45.434;9.116;2023-12-22T02:32:07;98945.22;;;5.30;100.00
59971;BME280;45825;45.434;9.116;2023-12-22T02:34:36;98910.63;;;5.89;100.00
59971;BME280;45825;45.434;9.116;2023-12-22T02:37:05;98899.44;;;5.87;100.00
59971;BME280;45825;45.434;9.116;2023-12-22T02:39:32;98902.44;;;5.95;100.00
59971;BME280;45825;45.434;9.116;2023-12-22T02:41:58;98897.88;;;5.99;100.00
59971;BME280;45825;45.434;9.116;2023-12-22T02:44:24;98899.81;;;5.95;100.00
59971;BME280;45825;45.434;9.116;2023-12-22T02:46:50;98911.69;;;6.01;100.00
59971;BME280;45825;45.434;9.116;2023-12-22T02:49:15;98904.28;;;6.09;100.00
59971;BME280;45825;45.434;9.116;2023-12-22T02:51:40;98917.84;;;6.00;100.00
59971;BME280;45825;45.434;9.116;2023-12-22T02:54:06;98916.84;;;6.03;100.00
59971;BME280;45825;45.434;9.116;2023-12-22T02:56:31;98911.88;;;5.98;100.00
59971;BME280;45825;45.434;9.116;2023-12-22T02:58:56;98903.84;;;6.01;100.00
59971;BME280;45825;45.434;9.116;2023-12-22T03:01:21;98897.66;;;6.04;100.00
59971;BME280;45825;45.434;9.116;2023-12-22T03:03:47;98898.63;;;6.01;100.00
59971;BME280;45825;45.434;9.116;2023-12-22T03:06:12;98912.22;;;6.08;100.00
59971;BME280;45825;45.434;9.116;2023-12-22T03:08:37;98890.94;;;6.14;100.00
59971;BME280;45825;45.434;9.116;2023-12-22T03:11:03;98905.13;;;6.10;100.00
59971;BME280;45825;45.434;9.116;2023-12-22T03:13:28;98888.72;;;6.08;100.00
59971;BME280;45825;45.434;9.116;2023-12-22T03:15:53;98888.06;;;6.04;100.00
59971;BME280;45825;45.434;9.116;2023-12-22T03:18:18;98871.63;;;6.02;100.00
59971;BME280;45825;45.434;9.116;2023-12-22T03:20:44;98880.47;;;5.99;100.00
59971;BME280;45825;45.434;9.116;2023-12-22T03:23:09;98877.50;;;6.06;100.00
59971;BME280;45825;45.434;9.116;2023-12-22T03:25:34;98896.81;;;6.03;100.00
59971;BME280;45825;45.434;9.116;2023-12-22T03:28:00;98888.19;;;6.01;100.00
59971;BME280;45825;45.434;9.116;2023-12-22T03:30:25;98877.69;;;6.03;100.00
59971;BME280;45825;45.434;9.116;2023-12-22T03:32:50;98888.38;;;5.98;100.00
59971;BME280;45825;45.434;9.116;2023-12-22T03:35:15;98888.47;;;5.96;100.00
59971;BME280;45825;45.434;9.116;2023-12-22T03:37:41;98891.41;;;6.06;100.00
59971;BME280;45825;45.434;9.116;2023-12-22T03:40:07;98901.22;;;6.01;100.00
59971;BME280;45825;45.434;9.116;2023-12-22T03:42:32;98903.09;;;5.99;100.00
59971;BME280;45825;45.434;9.116;2023-12-22T03:44:57;98907.38;;;6.00;100.00
59971;BME280;45825;45.434;9.116;2023-12-22T03:47:23;98905.22;;;6.08;100.00
59971;BME280;45825;45.434;9.116;2023-12-22T03:49:48;98901.13;;;6.04;100.00
59971;BME280;45825;45.434;9.116;2023-12-22T03:52:13;98891.59;;;6.03;100.00
59971;BME280;45825;45.434;9.116;2023-12-22T03:54:39;98897.19;;;6.11;100.00
59971;BME280;45825;45.434;9.116;2023-12-22T03:57:05;98904.13;;;6.12;100.00
59971;BME280;45825;45.434;9.116;2023-12-22T03:59:30;98884.53;;;6.20;100.00
59971;BME280;45825;45.434;9.116;2023-12-22T04:01:55;98901.13;;;6.19;100.00
59971;BME280;45825;45.434;9.116;2023-12-22T04:04:22;98915.59;;;6.24;100.00
59971;BME280;45825;45.434;9.116;2023-12-22T04:06:48;98911.72;;;6.32;100.00
59971;BME280;45825;45.434;9.116;2023-12-22T04:09:13;98920.16;;;6.21;100.00
59971;BME280;45825;45.434;9.116;2023-12-22T04:11:39;98928.75;;;6.23;100.00
59971;BME280;45825;45.434;9.116;2023-12-22T04:14:05;98910.84;;;6.31;100.00
59971;BME280;45825;45.434;9.116;2023-12-22T04:16:30;98921.44;;;6.59;100.00
59971;BME280;45825;45.434;9.116;2023-12-22T04:18:56;98927.19;;;6.49;100.00
59971;BME280;45825;45.434;9.116;2023-12-22T04:21:21;98914.63;;;6.70;100.00
59971;BME280;45825;45.434;9.116;2023-12-22T04:23:46;98918.44;;;6.79;100.00
59971;BME280;45825;45.434;9.116;2023-12-22T04:26:13;98912.28;;;6.66;100.00
59971;BME280;45825;45.434;9.116;2023-12-22T04:28:38;98926.38;;;6.63;100.00
59971;BME280;45825;45.434;9.116;2023-12-22T04:31:03;98954.47;;;6.60;100.00
59971;BME280;45825;45.434;9.116;2023-12-22T04:33:29;98936.16;;;6.60;100.00
59971;BME280;45825;45.434;9.116;2023-12-22T04:35:54;98936.94;;;6.62;100.00
59971;BME280;45825;45.434;9.116;2023-12-22T04:38:19;98911.16;;;6.55;100.00
59971;BME280;45825;45.434;9.116;2023-12-22T04:40:45;98927.59;;;6.57;100.00
59971;BME280;45825;45.434;9.116;2023-12-22T04:43:10;98923.69;;;6.50;100.00
59971;BME280;45825;45.434;9.116;2023-12-22T04:45:35;98923.03;;;6.61;100.00
59971;BME280;45825;45.434;9.116;2023-12-22T04:48:00;98927.59;;;6.57;100.00
59971;BME280;45825;45.434;9.116;2023-12-22T04:50:26;98909.22;;;6.59;100.00
59971;BME280;45825;45.434;9.116;2023-12-22T04:52:51;98904.38;;;6.67;100.00
59971;BME280;45825;45.434;9.116;2023-12-22T04:55:16;98908.81;;;6.65;100.00
59971;BME280;45825;45.434;9.116;2023-12-22T04:57:42;98907.34;;;6.61;100.00
59971;BME280;45825;45.434;9.116;2023-12-22T05:00:08;98915.09;;;6.63;100.00
59971;BME280;45825;45.434;9.116;2023-12-22T05:02:33;98907.63;;;6.56;100.00
59971;BME280;45825;45.434;9.116;2023-12-22T05:04:59;98912.75;;;6.58;100.00
59971;BME280;45825;45.434;9.116;2023-12-22T05:07:24;98910.31;;;6.55;100.00
59971;BME280;45825;45.434;9.116;2023-12-22T05:09:49;98913.50;;;6.46;100.00
59971;BME280;45825;45.434;9.116;2023-12-22T05:12:17;98906.94;;;6.38;100.00
59971;BME280;45825;45.434;9.116;2023-12-22T05:14:42;98896.22;;;6.43;100.00
59971;BME280;45825;45.434;9.116;2023-12-22T05:17:07;98904.06;;;6.43;100.00
59971;BME280;45825;45.434;9.116;2023-12-22T05:19:33;98897.16;;;6.42;100.00
59971;BME280;45825;45.434;9.116;2023-12-22T05:21:58;98889.22;;;6.43;100.00
59971;BME280;45825;45.434;9.116;2023-12-22T05:24:25;98882.59;;;6.38;100.00
59971;BME280;45825;45.434;9.116;2023-12-22T05:26:50;98890.69;;;6.33;100.00
59971;BME280;45825;45.434;9.116;2023-12-22T05:29:15;98895.00;;;6.34;100.00
59971;BME280;45825;45.434;9.116;2023-12-22T05:31:41;98892.22;;;6.37;100.00
59971;BME280;45825;45.434;9.116;2023-12-22T05:34:06;98903.47;;;6.38;100.00
59971;BME280;45825;45.434;9.116;2023-12-22T05:36:33;98904.69;;;6.32;100.00
59971;BME280;45825;45.434;9.116;2023-12-22T05:38:58;98899.84;;;6.26;100.00
59971;BME280;45825;45.434;9.116;2023-12-22T05:41:23;98904.69;;;6.32;100.00
59971;BME280;45825;45.434;9.116;2023-12-22T05:43:49;98908.63;;;6.39;100.00
59971;BME280;45825;45.434;9.116;2023-12-22T05:46:14;98918.81;;;6.29;100.00
59971;BME280;45825;45.434;9.116;2023-12-22T05:48:39;98931.75;;;6.31;100.00
59971;BME280;45825;45.434;9.116;2023-12-22T05:51:05;98948.81;;;6.22;100.00
59971;BME280;45825;45.434;9.116;2023-12-22T05:53:33;98936.09;;;6.61;100.00
59971;BME280;45825;45.434;9.116;2023-12-22T05:55:58;98958.22;;;6.55;100.00
59971;BME280;45825;45.434;9.116;2023-12-22T05:58:23;98976.97;;;6.62;100.00
59971;BME280;45825;45.434;9.116;2023-12-22T06:00:49;98983.50;;;6.55;100.00
59971;BME280;45825;45.434;9.116;2023-12-22T06:03:14;98977.53;;;6.53;100.00
59971;BME280;45825;45.434;9.116;2023-12-22T06:05:39;98968.66;;;6.55;100.00
59971;BME280;45825;45.434;9.116;2023-12-22T06:08:05;98989.66;;;6.54;100.00
59971;BME280;45825;45.434;9.116;2023-12-22T06:10:30;98993.88;;;6.56;100.00
59971;BME280;45825;45.434;9.116;2023-12-22T06:12:56;98979.97;;;6.56;100.00
59971;BME280;45825;45.434;9.116;2023-12-22T06:15:23;98986.16;;;6.69;100.00
59971;BME280;45825;45.434;9.116;2023-12-22T06:17:48;98986.34;;;6.81;100.00
59971;BME280;45825;45.434;9.116;2023-12-22T06:20:13;98978.31;;;6.84;100.00
59971;BME280;45825;45.434;9.116;2023-12-22T06:22:38;98979.78;;;6.88;100.00
59971;BME280;45825;45.434;9.116;2023-12-22T06:25:04;98986.06;;;7.00;100.00
59971;BME280;45825;45.434;9.116;2023-12-22T06:27:35;98998.13;;;7.03;100.00
59971;BME280;45825;45.434;9.116;2023-12-22T06:30:03;98990.28;;;7.03;100.00
59971;BME280;45825;45.434;9.116;2023-12-22T06:32:28;98990.81;;;7.08;100.00
59971;BME280;45825;45.434;9.116;2023-12-22T06:34:54;99001.94;;;7.11;100.00
59971;BME280;45825;45.434;9.116;2023-12-22T06:37:19;99001.84;;;7.13;100.00
59971;BME280;45825;45.434;9.116;2023-12-22T06:39:44;99012.31;;;7.13;100.00
59971;BME280;45825;45.434;9.116;2023-12-22T06:42:10;99020.84;;;7.17;100.00
59971;BME280;45825;45.434;9.116;2023-12-22T06:44:37;99013.91;;;7.16;100.00
59971;BME280;45825;45.434;9.116;2023-12-22T06:47:03;99023.72;;;7.26;100.00
59971;BME280;45825;45.434;9.116;2023-12-22T06:49:28;99020.81;;;7.31;100.00
59971;BME280;45825;45.434;9.116;2023-12-22T06:51:53;99027.25;;;7.40;100.00
59971;BME280;45825;45.434;9.116;2023-12-22T06:54:19;99023.56;;;7.57;100.00
59971;BME280;45825;45.434;9.116;2023-12-22T06:56:45;99028.06;;;7.69;100.00
59971;BME280;45825;45.434;9.116;2023-12-22T06:59:10;99027.06;;;7.85;100.00
59971;BME280;45825;45.434;9.116;2023-12-22T07:01:37;99035.22;;;8.08;100.00
59971;BME280;45825;45.434;9.116;2023-12-22T07:04:03;99029.69;;;8.13;100.00
59971;BME280;45825;45.434;9.116;2023-12-22T07:06:31;99045.72;;;8.08;100.00
59971;BME280;45825;45.434;9.116;2023-12-22T07:11:42;99056.25;;;8.21;100.00
59971;BME280;45825;45.434;9.116;2023-12-22T07:14:07;99059.84;;;8.33;100.00
59971;BME280;45825;45.434;9.116;2023-12-22T07:16:33;99062.13;;;8.24;100.00
59971;BME280;45825;45.434;9.116;2023-12-22T07:18:59;99051.31;;;8.16;100.00
59971;BME280;45825;45.434;9.116;2023-12-22T07:21:24;99062.38;;;8.07;100.00
59971;BME280;45825;45.434;9.116;2023-12-22T07:23:50;99067.66;;;7.92;100.00
59971;BME280;45825;45.434;9.116;2023-12-22T07:26:15;99069.06;;;7.83;100.00
59971;BME280;45825;45.434;9.116;2023-12-22T07:28:40;99079.53;;;7.83;100.00
59971;BME280;45825;45.434;9.116;2023-12-22T07:31:06;99079.75;;;7.80;100.00
59971;BME280;45825;45.434;9.116;2023-12-22T07:33:31;99091.41;;;7.89;100.00
59971;BME280;45825;45.434;9.116;2023-12-22T07:35:57;99099.41;;;8.15;100.00
59971;BME280;45825;45.434;9.116;2023-12-22T07:38:22;99102.78;;;8.17;100.00
59971;BME280;45825;45.434;9.116;2023-12-22T07:40:47;99097.53;;;8.17;100.00
59971;BME280;45825;45.434;9.116;2023-12-22T07:43:13;99094.81;;;8.19;100.00
59971;BME280;45825;45.434;9.116;2023-12-22T07:45:38;99109.41;;;8.23;100.00
59971;BME280;45825;45.434;9.116;2023-12-22T07:48:04;99116.22;;;8.25;100.00
59971;BME280;45825;45.434;9.116;2023-12-22T07:50:29;99120.41;;;8.28;100.00
59971;BME280;45825;45.434;9.116;2023-12-22T07:52:55;99130.53;;;8.34;100.00
59971;BME280;45825;45.434;9.116;2023-12-22T07:55:20;99142.31;;;8.42;100.00
59971;BME280;45825;45.434;9.116;2023-12-22T07:57:45;99142.63;;;8.50;100.00
59971;BME280;45825;45.434;9.116;2023-12-22T08:00:11;99137.56;;;8.61;100.00
59971;BME280;45825;45.434;9.116;2023-12-22T08:02:37;99147.78;;;8.79;100.00
59971;BME280;45825;45.434;9.116;2023-12-22T08:05:03;99148.66;;;8.92;100.00
59971;BME280;45825;45.434;9.116;2023-12-22T08:07:28;99156.69;;;9.17;100.00
59971;BME280;45825;45.434;9.116;2023-12-22T08:09:55;99152.41;;;9.29;100.00
59971;BME280;45825;45.434;9.116;2023-12-22T08:12:20;99152.84;;;9.48;100.00
59971;BME280;45825;45.434;9.116;2023-12-22T08:14:45;99148.09;;;9.67;100.00
59971;BME280;45825;45.434;9.116;2023-12-22T08:17:11;99165.00;;;10.13;83.20
59971;BME280;45825;45.434;9.116;2023-12-22T08:19:38;99147.97;;;10.56;76.70
59971;BME280;45825;45.434;9.116;2023-12-22T08:22:04;99148.13;;;10.66;72.00
59971;BME280;45825;45.434;9.116;2023-12-22T08:24:29;99141.00;;;10.68;70.41
59971;BME280;45825;45.434;9.116;2023-12-22T08:26:54;99139.56;;;10.75;70.26
59971;BME280;45825;45.434;9.116;2023-12-22T08:29:20;99146.06;;;10.82;70.52
59971;BME280;45825;45.434;9.116;2023-12-22T08:31:45;99139.63;;;10.98;69.28
59971;BME280;45825;45.434;9.116;2023-12-22T08:34:11;99139.69;;;11.21;68.79
59971;BME280;45825;45.434;9.116;2023-12-22T08:36:36;99136.50;;;11.28;69.08
59971;BME280;45825;45.434;9.116;2023-12-22T08:39:01;99110.53;;;11.35;69.25
59971;BME280;45825;45.434;9.116;2023-12-22T08:41:27;99119.84;;;11.39;69.28
59971;BME280;45825;45.434;9.116;2023-12-22T08:43:52;99121.06;;;11.46;69.55
59971;BME280;45825;45.434;9.116;2023-12-22T08:46:17;99114.47;;;11.52;67.85
59971;BME280;45825;45.434;9.116;2023-12-22T08:48:43;99108.59;;;11.71;64.95
59971;BME280;45825;45.434;9.116;2023-12-22T08:51:08;99120.44;;;11.88;65.26
59971;BME280;45825;45.434;9.116;2023-12-22T08:53:34;99125.59;;;12.01;64.73
59971;BME280;45825;45.434;9.116;2023-12-22T08:56:02;99118.88;;;11.97;64.89
59971;BME280;45825;45.434;9.116;2023-12-22T08:58:29;99113.50;;;12.10;65.37
59971;BME280;45825;45.434;9.116;2023-12-22T09:00:54;99127.03;;;12.17;64.83
59971;BME280;45825;45.434;9.116;2023-12-22T09:03:19;99128.91;;;12.26;64.68
59971;BME280;45825;45.434;9.116;2023-12-22T09:05:45;99147.50;;;12.36;59.15
59971;BME280;45825;45.434;9.116;2023-12-22T09:08:10;99160.47;;;12.28;58.91
59971;BME280;45825;45.434;9.116;2023-12-22T09:10:35;99169.19;;;12.28;59.07
59971;BME280;45825;45.434;9.116;2023-12-22T09:13:01;99183.88;;;12.54;58.70
59971;BME280;45825;45.434;9.116;2023-12-22T09:15:27;99191.13;;;12.40;59.44
59971;BME280;45825;45.434;9.116;2023-12-22T09:17:52;99199.28;;;12.49;54.76
59971;BME280;45825;45.434;9.116;2023-12-22T09:20:19;99200.22;;;12.48;54.38
59971;BME280;45825;45.434;9.116;2023-12-22T09:22:44;99200.53;;;12.66;55.90
59971;BME280;45825;45.434;9.116;2023-12-22T09:25:09;99205.03;;;12.42;57.81
59971;BME280;45825;45.434;9.116;2023-12-22T09:27:34;99206.88;;;12.31;57.79
59971;BME280;45825;45.434;9.116;2023-12-22T09:30:00;99210.94;;;12.23;58.21
59971;BME280;45825;45.434;9.116;2023-12-22T09:32:25;99204.47;;;12.16;58.47
59971;BME280;45825;45.434;9.116;2023-12-22T09:34:52;99222.22;;;12.14;58.02
59971;BME280;45825;45.434;9.116;2023-12-22T09:37:17;99215.63;;;12.08;59.21
59971;BME280;45825;45.434;9.116;2023-12-22T09:39:42;99200.63;;;12.32;58.13
59971;BME280;45825;45.434;9.116;2023-12-22T09:42:08;99216.94;;;12.81;56.21
59971;BME280;45825;45.434;9.116;2023-12-22T09:44:34;99209.13;;;12.47;58.13
59971;BME280;45825;45.434;9.116;2023-12-22T09:47:03;99212.94;;;12.42;57.93
59971;BME280;45825;45.434;9.116;2023-12-22T09:49:29;99207.56;;;12.33;58.66
59971;BME280;45825;45.434;9.116;2023-12-22T09:51:55;99202.91;;;12.25;59.85
59971;BME280;45825;45.434;9.116;2023-12-22T09:54:22;99202.66;;;12.28;60.00
59971;BME280;45825;45.434;9.116;2023-12-22T09:56:48;99193.66;;;12.19;61.25
59971;BME280;45825;45.434;9.116;2023-12-22T09:59:17;99182.28;;;12.19;60.87
59971;BME280;45825;45.434;9.116;2023-12-22T10:01:44;99175.59;;;12.14;61.62
59971;BME280;45825;45.434;9.116;2023-12-22T10:04:15;99172.09;;;12.14;61.51
59971;BME280;45825;45.434;9.116;2023-12-22T10:06:41;99164.53;;;12.21;60.76
59971;BME280;45825;45.434;9.116;2023-12-22T10:09:07;99154.84;;;12.21;60.47
59971;BME280;45825;45.434;9.116;2023-12-22T10:11:35;99155.44;;;12.25;60.88
59971;BME280;45825;45.434;9.116;2023-12-22T10:14:02;99162.38;;;12.37;60.56
59971;BME280;45825;45.434;9.116;2023-12-22T10:16:28;99152.84;;;12.46;59.22
59971;BME280;45825;45.434;9.116;2023-12-22T10:18:54;99160.41;;;12.51;59.58
59971;BME280;45825;45.434;9.116;2023-12-22T10:21:19;99156.69;;;12.53;58.83
59971;BME280;45825;45.434;9.116;2023-12-22T10:23:44;99158.81;;;12.60;59.59
59971;BME280;45825;45.434;9.116;2023-12-22T10:26:13;99163.94;;;12.73;57.86
59971;BME280;45825;45.434;9.116;2023-12-22T10:28:38;99167.28;;;12.75;57.85
59971;BME280;45825;45.434;9.116;2023-12-22T10:31:05;99163.50;;;12.89;57.03
59971;BME280;45825;45.434;9.116;2023-12-22T10:33:32;99164.41;;;12.99;56.30
59971;BME280;45825;45.434;9.116;2023-12-22T10:36:01;99146.47;;;13.14;55.71
59971;BME280;45825;45.434;9.116;2023-12-22T10:38:35;99147.03;;;13.18;55.17
59971;BME280;45825;45.434;9.116;2023-12-22T10:41:02;99142.25;;;13.33;54.62
59971;BME280;45825;45.434;9.116;2023-12-22T10:43:27;99134.91;;;13.58;53.29
59971;BME280;45825;45.434;9.116;2023-12-22T10:45:53;99124.25;;;13.69;52.46
59971;BME280;45825;45.434;9.116;2023-12-22T10:48:18;99115.13;;;13.83;51.54
59971;BME280;45825;45.434;9.116;2023-12-22T10:50:44;99106.63;;;13.89;51.23
59971;BME280;45825;45.434;9.116;2023-12-22T10:53:13;99098.47;;;14.02;50.28
59971;BME280;45825;45.434;9.116;2023-12-22T10:55:38;99111.56;;;14.04;50.70
59971;BME280;45825;45.434;9.116;2023-12-22T10:58:05;99107.66;;;14.18;49.28
59971;BME280;45825;45.434;9.116;2023-12-22T11:00:32;99114.38;;;14.32;48.63
59971;BME280;45825;45.434;9.116;2023-12-22T11:03:01;99108.25;;;14.41;48.45
59971;BME280;45825;45.434;9.116;2023-12-22T11:05:28;99116.34;;;14.49;48.92
59971;BME280;45825;45.434;9.116;2023-12-22T11:07:54;99109.38;;;14.58;48.46
59971;BME280;45825;45.434;9.116;2023-12-22T11:10:21;99098.09;;;14.66;47.14
59971;BME280;45825;45.434;9.116;2023-12-22T11:12:47;99090.59;;;14.91;46.16
59971;BME280;45825;45.434;9.116;2023-12-22T11:15:14;99089.03;;;14.98;45.13
59971;BME280;45825;45.434;9.116;2023-12-22T11:17:41;99092.91;;;15.14;44.62
59971;BME280;45825;45.434;9.116;2023-12-22T11:20:12;99091.00;;;15.44;44.30
59971;BME280;45825;45.434;9.116;2023-12-22T11:22:38;99088.63;;;15.50;44.63
59971;BME280;45825;45.434;9.116;2023-12-22T11:25:05;99089.56;;;15.59;43.89
59971;BME280;45825;45.434;9.116;2023-12-22T11:27:33;99091.56;;;15.75;43.93
59971;BME280;45825;45.434;9.116;2023-12-22T11:30:00;99088.16;;;15.93;43.22
59971;BME280;45825;45.434;9.116;2023-12-22T11:32:27;99090.53;;;15.96;43.21
59971;BME280;45825;45.434;9.116;2023-12-22T11:34:54;99086.56;;;16.00;42.65
59971;BME280;45825;45.434;9.116;2023-12-22T11:37:21;99081.91;;;16.12;42.61
59971;BME280;45825;45.434;9.116;2023-12-22T11:39:47;99080.63;;;16.34;40.74
59971;BME280;45825;45.434;9.116;2023-12-22T11:42:21;99090.78;;;16.57;40.45
59971;BME280;45825;45.434;9.116;2023-12-22T11:44:47;99089.94;;;16.75;39.47
59971;BME280;45825;45.434;9.116;2023-12-22T11:47:13;99083.06;;;17.09;38.24
59971;BME280;45825;45.434;9.116;2023-12-22T11:49:40;99073.56;;;17.33;38.17
59971;BME280;45825;45.434;9.116;2023-12-22T11:52:16;99076.81;;;17.53;37.47
59971;BME280;45825;45.434;9.116;2023-12-22T11:54:50;99072.88;;;17.65;37.62
59971;BME280;45825;45.434;9.116;2023-12-22T11:57:37;99070.47;;;17.88;37.75
59971;BME280;45825;45.434;9.116;2023-12-22T12:02:37;99058.78;;;18.41;36.66
59971;BME280;45825;45.434;9.116;2023-12-22T12:05:04;99063.28;;;18.74;36.16
59971;BME280;45825;45.434;9.116;2023-12-22T12:13:11;99058.41;;;20.54;32.70
59971;BME280;45825;45.434;9.116;2023-12-22T12:15:38;99063.38;;;22.37;30.98
59971;BME280;45825;45.434;9.116;2023-12-22T12:18:04;99063.34;;;24.82;28.35
59971;BME280;45825;45.434;9.116;2023-12-22T12:20:31;99055.25;;;26.21;26.26
59971;BME280;45825;45.434;9.116;2023-12-22T12:22:57;99041.06;;;27.09;24.88
59971;BME280;45825;45.434;9.116;2023-12-22T12:25:23;99038.16;;;27.47;24.85
59971;BME280;45825;45.434;9.116;2023-12-22T12:28:03;99037.47;;;28.32;23.42
59971;BME280;45825;45.434;9.116;2023-12-22T12:30:30;99030.00;;;28.15;23.05
59971;BME280;45825;45.434;9.116;2023-12-22T12:32:58;99031.53;;;28.78;22.50
59971;BME280;45825;45.434;9.116;2023-12-22T12:35:27;99025.59;;;29.40;22.23
59971;BME280;45825;45.434;9.116;2023-12-22T12:37:54;99021.22;;;29.51;20.92
59971;BME280;45825;45.434;9.116;2023-12-22T12:40:20;99015.53;;;30.23;20.21
59971;BME280;45825;45.434;9.116;2023-12-22T12:42:50;99023.00;;;29.87;19.78
59971;BME280;45825;45.434;9.116;2023-12-22T12:45:21;99014.38;;;28.84;21.06
59971;BME280;45825;45.434;9.116;2023-12-22T12:48:03;99003.00;;;27.17;21.90
59971;BME280;45825;45.434;9.116;2023-12-22T12:50:29;98999.00;;;24.54;24.48
59971;BME280;45825;45.434;9.116;2023-12-22T12:52:56;98996.25;;;22.67;26.59
59971;BME280;45825;45.434;9.116;2023-12-22T12:55:23;99001.72;;;21.57;27.60
59971;BME280;45825;45.434;9.116;2023-12-22T12:57:52;99008.81;;;20.74;27.81
59971;BME280;45825;45.434;9.116;2023-12-22T13:00:28;99002.53;;;20.05;29.02
59971;BME280;45825;45.434;9.116;2023-12-22T13:02:54;98997.81;;;19.44;29.91
59971;BME280;45825;45.434;9.116;2023-12-22T13:05:24;98992.63;;;19.11;30.60
59971;BME280;45825;45.434;9.116;2023-12-22T13:07:50;98993.28;;;19.85;30.55
59971;BME280;45825;45.434;9.116;2023-12-22T13:10:22;98987.69;;;21.70;28.46